sensor_id;sensor_type;location;lat;lon;timestamp;pressure;altitude;pressure_sealevel;temperature;humidity
43503;BME280;29098;48.184;16.298;2023-01-26T00:00:52;100039.78;;;1.63;100.00
43503;BME280;29098;48.184;16.298;2023-01-26T00:03:18;100042.06;;;1.68;100.00
43503;BME280;29098;48.184;16.298;2023-01-26T00:05:43;100035.31;;;1.66;100.00
43503;BME280;29098;48.184;16.298;2023-01-26T00:08:09;100036.25;;;1.64;100.00
43503;BME280;29098;48.184;16.298;2023-01-26T00:10:39;100033.69;;;1.39;100.00
43503;BME280;29098;48.184;16.298;2023-01-26T00:13:06;100037.31;;;1.36;100.00
43503;BME280;29098;48.184;16.298;2023-01-26T00:15:33;100028.81;;;1.34;100.00
43503;BME280;29098;48.184;16.298;2023-01-26T00:18:00;100031.59;;;1.31;100.00
43503;BME280;29098;48.184;16.298;2023-01-26T00:20:26;100038.56;;;1.30;100.00
43503;BME280;29098;48.184;16.298;2023-01-26T00:22:52;100021.53;;;1.26;100.00
43503;BME280;29098;48.184;16.298;2023-01-26T00:25:17;100030.56;;;1.20;100.00
43503;BME280;29098;48.184;16.298;2023-01-26T00:27:43;100022.88;;;1.19;100.00
43503;BME280;29098;48.184;16.298;2023-01-26T00:30:08;100021.84;;;1.21;100.00
43503;BME280;29098;48.184;16.298;2023-01-26T00:32:34;100017.50;;;1.22;100.00
43503;BME280;29098;48.184;16.298;2023-01-26T00:35:00;100006.38;;;1.20;100.00
43503;BME280;29098;48.184;16.298;2023-01-26T00:37:25;100018.41;;;1.34;100.00
43503;BME280;29098;48.184;16.298;2023-01-26T00:39:51;100014.16;;;1.33;100.00
43503;BME280;29098;48.184;16.298;2023-01-26T00:42:16;100012.19;;;1.36;100.00
43503;BME280;29098;48.184;16.298;2023-01-26T00:44:41;100012.59;;;1.30;100.00
43503;BME280;29098;48.184;16.298;2023-01-26T00:47:07;100016.34;;;1.26;100.00
43503;BME280;29098;48.184;16.298;2023-01-26T00:49:33;100007.63;;;1.27;100.00
43503;BME280;29098;48.184;16.298;2023-01-26T00:51:59;100001.50;;;1.28;100.00
43503;BME280;29098;48.184;16.298;2023-01-26T00:54:25;99999.41;;;1.20;100.00
43503;BME280;29098;48.184;16.298;2023-01-26T00:56:50;99990.56;;;1.23;100.00
43503;BME280;29098;48.184;16.298;2023-01-26T00:59:16;99983.31;;;1.28;100.00
43503;BME280;29098;48.184;16.298;2023-01-26T01:01:41;99987.66;;;1.28;100.00
43503;BME280;29098;48.184;16.298;2023-01-26T01:04:07;99984.44;;;1.24;100.00
43503;BME280;29098;48.184;16.298;2023-01-26T01:06:32;99986.84;;;1.27;100.00
43503;BME280;29098;48.184;16.298;2023-01-26T01:08:58;99988.31;;;1.18;100.00
43503;BME280;29098;48.184;16.298;2023-01-26T01:11:23;99981.94;;;1.22;100.00
43503;BME280;29098;48.184;16.298;2023-01-26T01:13:48;99979.03;;;1.40;100.00
43503;BME280;29098;48.184;16.298;2023-01-26T01:16:14;99974.88;;;1.38;100.00
43503;BME280;29098;48.184;16.298;2023-01-26T01:18:40;99972.38;;;1.36;100.00
43503;BME280;29098;48.184;16.298;2023-01-26T01:21:06;99973.00;;;1.27;100.00
43503;BME280;29098;48.184;16.298;2023-01-26T01:23:32;99969.91;;;1.21;100.00
43503;BME280;29098;48.184;16.298;2023-01-26T01:25:57;99969.25;;;1.31;100.00
43503;BME280;29098;48.184;16.298;2023-01-26T01:28:23;99962.31;;;1.31;100.00
43503;BME280;29098;48.184;16.298;2023-01-26T01:30:49;99959.28;;;1.38;100.00
43503;BME280;29098;48.184;16.298;2023-01-26T01:33:14;99960.31;;;1.35;100.00
43503;BME280;29098;48.184;16.298;2023-01-26T01:35:40;99963.97;;;1.32;100.00
43503;BME280;29098;48.184;16.298;2023-01-26T01:38:05;99959.47;;;1.34;100.00
43503;BME280;29098;48.184;16.298;2023-01-26T01:40:31;99955.88;;;1.24;100.00
43503;BME280;29098;48.184;16.298;2023-01-26T01:42:56;99957.72;;;1.35;100.00
43503;BME280;29098;48.184;16.298;2023-01-26T01:47:50;99949.41;;;1.30;100.00
43503;BME280;29098;48.184;16.298;2023-01-26T01:50:17;99942.69;;;1.14;100.00
43503;BME280;29098;48.184;16.298;2023-01-26T01:52:43;99947.03;;;1.27;100.00
43503;BME280;29098;48.184;16.298;2023-01-26T01:55:09;99946.66;;;1.20;100.00
43503;BME280;29098;48.184;16.298;2023-01-26T01:57:37;99950.25;;;1.30;100.00
43503;BME280;29098;48.184;16.298;2023-01-26T02:00:15;99953.91;;;1.28;100.00
43503;BME280;29098;48.184;16.298;2023-01-26T02:02:45;99935.09;;;1.24;100.00
43503;BME280;29098;48.184;16.298;2023-01-26T02:05:34;99929.72;;;1.27;100.00
43503;BME280;29098;48.184;16.298;2023-01-26T02:08:03;99925.25;;;1.16;100.00
43503;BME280;29098;48.184;16.298;2023-01-26T02:10:28;99927.31;;;1.24;100.00
43503;BME280;29098;48.184;16.298;2023-01-26T02:12:54;99919.50;;;1.24;100.00
43503;BME280;29098;48.184;16.298;2023-01-26T02:15:26;99912.34;;;1.28;100.00
43503;BME280;29098;48.184;16.298;2023-01-26T02:17:52;99911.41;;;1.29;100.00
43503;BME280;29098;48.184;16.298;2023-01-26T02:20:27;99915.47;;;1.20;100.00
43503;BME280;29098;48.184;16.298;2023-01-26T02:23:02;99904.03;;;1.22;100.00
43503;BME280;29098;48.184;16.298;2023-01-26T02:28:02;99899.47;;;1.13;100.00
43503;BME280;29098;48.184;16.298;2023-01-26T02:30:29;99896.78;;;1.15;100.00
43503;BME280;29098;48.184;16.298;2023-01-26T02:32:55;99895.53;;;1.20;100.00
43503;BME280;29098;48.184;16.298;2023-01-26T02:35:20;99890.31;;;1.20;100.00
43503;BME280;29098;48.184;16.298;2023-01-26T02:37:46;99890.22;;;1.22;100.00
43503;BME280;29098;48.184;16.298;2023-01-26T02:42:40;99892.53;;;1.14;100.00
43503;BME280;29098;48.184;16.298;2023-01-26T02:45:09;99886.59;;;1.12;100.00
43503;BME280;29098;48.184;16.298;2023-01-26T02:47:35;99885.78;;;1.11;100.00
43503;BME280;29098;48.184;16.298;2023-01-26T02:50:00;99883.28;;;1.09;100.00
43503;BME280;29098;48.184;16.298;2023-01-26T02:52:26;99876.34;;;1.10;100.00
43503;BME280;29098;48.184;16.298;2023-01-26T02:54:52;99870.53;;;1.06;100.00
43503;BME280;29098;48.184;16.298;2023-01-26T02:57:38;99870.28;;;1.09;100.00
43503;BME280;29098;48.184;16.298;2023-01-26T03:00:05;99863.03;;;1.15;100.00
43503;BME280;29098;48.184;16.298;2023-01-26T03:02:31;99870.81;;;1.15;100.00
43503;BME280;29098;48.184;16.298;2023-01-26T03:04:56;99871.53;;;1.17;100.00
43503;BME280;29098;48.184;16.298;2023-01-26T03:07:21;99872.44;;;1.29;100.00
43503;BME280;29098;48.184;16.298;2023-01-26T03:09:47;99870.88;;;1.26;100.00
43503;BME280;29098;48.184;16.298;2023-01-26T03:12:12;99867.19;;;1.42;100.00
43503;BME280;29098;48.184;16.298;2023-01-26T03:14:38;99865.72;;;1.50;100.00
43503;BME280;29098;48.184;16.298;2023-01-26T03:17:03;99862.50;;;1.47;100.00
43503;BME280;29098;48.184;16.298;2023-01-26T03:19:28;99864.50;;;1.43;100.00
43503;BME280;29098;48.184;16.298;2023-01-26T03:22:12;99862.00;;;1.42;100.00
43503;BME280;29098;48.184;16.298;2023-01-26T03:24:56;99858.34;;;1.44;100.00
43503;BME280;29098;48.184;16.298;2023-01-26T03:27:43;99863.69;;;1.43;100.00
43503;BME280;29098;48.184;16.298;2023-01-26T03:30:10;99862.22;;;1.39;100.00
43503;BME280;29098;48.184;16.298;2023-01-26T03:32:35;99854.16;;;1.30;100.00
43503;BME280;29098;48.184;16.298;2023-01-26T03:35:01;99852.06;;;1.22;100.00
43503;BME280;29098;48.184;16.298;2023-01-26T03:37:31;99854.28;;;1.16;100.00
43503;BME280;29098;48.184;16.298;2023-01-26T03:40:04;99850.97;;;1.14;100.00
43503;BME280;29098;48.184;16.298;2023-01-26T03:42:49;99851.41;;;1.07;100.00
43503;BME280;29098;48.184;16.298;2023-01-26T03:45:33;99853.69;;;1.12;100.00
43503;BME280;29098;48.184;16.298;2023-01-26T03:48:16;99857.03;;;1.01;100.00
43503;BME280;29098;48.184;16.298;2023-01-26T03:51:01;99852.53;;;1.03;100.00
43503;BME280;29098;48.184;16.298;2023-01-26T03:53:44;99847.34;;;1.03;100.00
43503;BME280;29098;48.184;16.298;2023-01-26T03:56:28;99841.13;;;1.06;100.00
43503;BME280;29098;48.184;16.298;2023-01-26T03:58:59;99833.28;;;1.19;100.00
43503;BME280;29098;48.184;16.298;2023-01-26T04:01:33;99839.38;;;1.06;100.00
43503;BME280;29098;48.184;16.298;2023-01-26T04:03:58;99842.91;;;1.05;100.00
43503;BME280;29098;48.184;16.298;2023-01-26T04:06:43;99832.84;;;1.01;100.00
43503;BME280;29098;48.184;16.298;2023-01-26T04:09:27;99819.53;;;1.05;100.00
43503;BME280;29098;48.184;16.298;2023-01-26T04:11:52;99822.13;;;1.05;100.00
43503;BME280;29098;48.184;16.298;2023-01-26T04:14:17;99827.31;;;1.05;100.00
43503;BME280;29098;48.184;16.298;2023-01-26T04:17:02;99821.84;;;0.97;100.00
43503;BME280;29098;48.184;16.298;2023-01-26T04:19:46;99815.72;;;0.98;100.00
43503;BME280;29098;48.184;16.298;2023-01-26T04:22:30;99816.94;;;1.05;100.00
43503;BME280;29098;48.184;16.298;2023-01-26T04:24:58;99811.13;;;1.02;100.00
43503;BME280;29098;48.184;16.298;2023-01-26T04:27:23;99809.66;;;0.98;100.00
43503;BME280;29098;48.184;16.298;2023-01-26T04:29:49;99808.91;;;1.08;100.00
43503;BME280;29098;48.184;16.298;2023-01-26T04:32:14;99810.38;;;1.13;100.00
43503;BME280;29098;48.184;16.298;2023-01-26T04:34:40;99807.88;;;1.11;100.00
43503;BME280;29098;48.184;16.298;2023-01-26T04:37:05;99813.50;;;1.05;100.00
43503;BME280;29098;48.184;16.298;2023-01-26T04:39:30;99811.50;;;1.08;100.00
43503;BME280;29098;48.184;16.298;2023-01-26T04:41:56;99801.34;;;1.05;100.00
43503;BME280;29098;48.184;16.298;2023-01-26T04:44:21;99804.16;;;1.02;100.00
43503;BME280;29098;48.184;16.298;2023-01-26T04:46:46;99801.13;;;1.08;100.00
43503;BME280;29098;48.184;16.298;2023-01-26T04:49:13;99805.88;;;1.15;100.00
43503;BME280;29098;48.184;16.298;2023-01-26T04:51:38;99800.94;;;0.99;100.00
43503;BME280;29098;48.184;16.298;2023-01-26T04:54:04;99799.56;;;1.06;100.00
43503;BME280;29098;48.184;16.298;2023-01-26T04:56:30;99797.53;;;0.98;100.00
43503;BME280;29098;48.184;16.298;2023-01-26T04:59:00;99790.84;;;1.07;100.00
43503;BME280;29098;48.184;16.298;2023-01-26T05:01:25;99790.75;;;1.08;100.00
43503;BME280;29098;48.184;16.298;2023-01-26T05:03:51;99789.75;;;0.98;100.00
43503;BME280;29098;48.184;16.298;2023-01-26T05:06:17;99781.72;;;1.01;100.00
43503;BME280;29098;48.184;16.298;2023-01-26T05:08:42;99785.50;;;0.97;100.00
43503;BME280;29098;48.184;16.298;2023-01-26T05:11:08;99781.63;;;1.03;100.00
43503;BME280;29098;48.184;16.298;2023-01-26T05:13:33;99780.13;;;1.12;100.00
43503;BME280;29098;48.184;16.298;2023-01-26T05:16:00;99778.59;;;1.09;100.00
43503;BME280;29098;48.184;16.298;2023-01-26T05:18:25;99778.03;;;1.17;100.00
43503;BME280;29098;48.184;16.298;2023-01-26T05:20:51;99781.94;;;1.22;100.00
43503;BME280;29098;48.184;16.298;2023-01-26T05:23:16;99786.88;;;1.14;100.00
43503;BME280;29098;48.184;16.298;2023-01-26T05:25:41;99772.84;;;1.17;100.00
43503;BME280;29098;48.184;16.298;2023-01-26T05:28:07;99778.13;;;1.15;100.00
43503;BME280;29098;48.184;16.298;2023-01-26T05:30:32;99785.31;;;1.12;100.00
43503;BME280;29098;48.184;16.298;2023-01-26T05:33:04;99778.94;;;1.04;100.00
43503;BME280;29098;48.184;16.298;2023-01-26T05:35:30;99780.34;;;1.08;100.00
43503;BME280;29098;48.184;16.298;2023-01-26T05:37:55;99777.38;;;1.02;100.00
43503;BME280;29098;48.184;16.298;2023-01-26T05:40:21;99772.56;;;1.08;100.00
43503;BME280;29098;48.184;16.298;2023-01-26T05:42:47;99774.28;;;1.21;100.00
43503;BME280;29098;48.184;16.298;2023-01-26T05:45:12;99778.53;;;1.22;100.00
43503;BME280;29098;48.184;16.298;2023-01-26T05:47:38;99776.06;;;1.20;100.00
43503;BME280;29098;48.184;16.298;2023-01-26T05:50:03;99785.16;;;1.26;100.00
43503;BME280;29098;48.184;16.298;2023-01-26T05:52:29;99789.59;;;1.13;100.00
43503;BME280;29098;48.184;16.298;2023-01-26T05:54:54;99782.00;;;1.09;100.00
43503;BME280;29098;48.184;16.298;2023-01-26T05:57:19;99787.47;;;1.18;100.00
43503;BME280;29098;48.184;16.298;2023-01-26T05:59:45;99792.69;;;1.18;100.00
43503;BME280;29098;48.184;16.298;2023-01-26T06:02:11;99782.25;;;1.06;100.00
43503;BME280;29098;48.184;16.298;2023-01-26T06:04:36;99783.81;;;0.96;100.00
43503;BME280;29098;48.184;16.298;2023-01-26T06:07:02;99791.13;;;0.91;100.00
43503;BME280;29098;48.184;16.298;2023-01-26T06:09:27;99785.09;;;0.90;100.00
43503;BME280;29098;48.184;16.298;2023-01-26T06:11:52;99793.81;;;0.89;100.00
43503;BME280;29098;48.184;16.298;2023-01-26T06:14:18;99784.28;;;0.90;100.00
43503;BME280;29098;48.184;16.298;2023-01-26T06:16:46;99781.78;;;0.88;100.00
43503;BME280;29098;48.184;16.298;2023-01-26T06:19:12;99780.72;;;0.91;100.00
43503;BME280;29098;48.184;16.298;2023-01-26T06:21:37;99778.13;;;0.91;100.00
43503;BME280;29098;48.184;16.298;2023-01-26T06:24:02;99778.84;;;0.93;100.00
43503;BME280;29098;48.184;16.298;2023-01-26T06:26:28;99773.16;;;0.88;100.00
43503;BME280;29098;48.184;16.298;2023-01-26T06:28:54;99776.25;;;0.93;100.00
43503;BME280;29098;48.184;16.298;2023-01-26T06:31:20;99774.16;;;0.98;100.00
43503;BME280;29098;48.184;16.298;2023-01-26T06:33:45;99778.00;;;0.92;100.00
43503;BME280;29098;48.184;16.298;2023-01-26T06:36:12;99780.78;;;1.02;100.00
43503;BME280;29098;48.184;16.298;2023-01-26T06:38:37;99779.38;;;0.98;100.00
43503;BME280;29098;48.184;16.298;2023-01-26T06:41:04;99777.16;;;1.05;100.00
43503;BME280;29098;48.184;16.298;2023-01-26T06:43:30;99778.31;;;1.01;100.00
43503;BME280;29098;48.184;16.298;2023-01-26T06:45:56;99780.69;;;1.04;100.00
43503;BME280;29098;48.184;16.298;2023-01-26T06:48:25;99779.81;;;1.16;100.00
43503;BME280;29098;48.184;16.298;2023-01-26T06:50:51;99784.50;;;1.11;100.00
43503;BME280;29098;48.184;16.298;2023-01-26T06:53:24;99783.91;;;1.07;100.00
43503;BME280;29098;48.184;16.298;2023-01-26T06:55:49;99781.13;;;1.22;100.00
43503;BME280;29098;48.184;16.298;2023-01-26T06:58:16;99786.06;;;1.14;100.00
43503;BME280;29098;48.184;16.298;2023-01-26T07:00:41;99787.09;;;1.11;100.00
43503;BME280;29098;48.184;16.298;2023-01-26T07:03:07;99784.78;;;1.19;100.00
43503;BME280;29098;48.184;16.298;2023-01-26T07:05:33;99782.78;;;1.23;100.00
43503;BME280;29098;48.184;16.298;2023-01-26T07:07:58;99783.75;;;1.22;100.00
43503;BME280;29098;48.184;16.298;2023-01-26T07:10:26;99784.56;;;1.22;100.00
43503;BME280;29098;48.184;16.298;2023-01-26T07:12:51;99787.28;;;1.21;100.00
43503;BME280;29098;48.184;16.298;2023-01-26T07:15:17;99785.81;;;1.17;100.00
43503;BME280;29098;48.184;16.298;2023-01-26T07:17:42;99782.13;;;1.08;100.00
43503;BME280;29098;48.184;16.298;2023-01-26T07:20:07;99779.41;;;1.09;100.00
43503;BME280;29098;48.184;16.298;2023-01-26T07:22:33;99785.13;;;1.15;100.00
43503;BME280;29098;48.184;16.298;2023-01-26T07:24:58;99782.72;;;1.12;100.00
43503;BME280;29098;48.184;16.298;2023-01-26T07:27:24;99781.19;;;1.09;100.00
43503;BME280;29098;48.184;16.298;2023-01-26T07:29:49;99770.59;;;1.36;100.00
43503;BME280;29098;48.184;16.298;2023-01-26T07:32:15;99779.97;;;1.26;100.00
43503;BME280;29098;48.184;16.298;2023-01-26T07:34:40;99777.50;;;1.25;100.00
43503;BME280;29098;48.184;16.298;2023-01-26T07:37:06;99772.41;;;1.23;100.00
43503;BME280;29098;48.184;16.298;2023-01-26T07:39:31;99770.31;;;1.28;100.00
43503;BME280;29098;48.184;16.298;2023-01-26T07:41:56;99766.84;;;1.16;100.00
43503;BME280;29098;48.184;16.298;2023-01-26T07:44:22;99771.81;;;1.19;100.00
43503;BME280;29098;48.184;16.298;2023-01-26T07:46:47;99767.91;;;1.25;100.00
43503;BME280;29098;48.184;16.298;2023-01-26T07:49:12;99774.56;;;1.29;100.00
43503;BME280;29098;48.184;16.298;2023-01-26T07:51:38;99772.31;;;1.25;100.00
43503;BME280;29098;48.184;16.298;2023-01-26T07:54:06;99764.63;;;1.23;100.00
43503;BME280;29098;48.184;16.298;2023-01-26T07:56:34;99761.06;;;1.24;100.00
43503;BME280;29098;48.184;16.298;2023-01-26T07:59:00;99764.38;;;1.26;100.00
43503;BME280;29098;48.184;16.298;2023-01-26T08:01:25;99769.56;;;1.26;100.00
43503;BME280;29098;48.184;16.298;2023-01-26T08:03:51;99766.50;;;1.21;100.00
43503;BME280;29098;48.184;16.298;2023-01-26T08:06:18;99763.16;;;1.19;100.00
43503;BME280;29098;48.184;16.298;2023-01-26T08:08:44;99762.78;;;1.36;100.00
43503;BME280;29098;48.184;16.298;2023-01-26T08:11:09;99771.41;;;1.37;100.00
43503;BME280;29098;48.184;16.298;2023-01-26T08:13:35;99771.03;;;1.30;100.00
43503;BME280;29098;48.184;16.298;2023-01-26T08:16:01;99773.28;;;1.35;100.00
43503;BME280;29098;48.184;16.298;2023-01-26T08:18:26;99772.78;;;1.30;100.00
43503;BME280;29098;48.184;16.298;2023-01-26T08:20:52;99772.69;;;1.31;100.00
43503;BME280;29098;48.184;16.298;2023-01-26T08:23:18;99760.41;;;1.33;100.00
43503;BME280;29098;48.184;16.298;2023-01-26T08:25:44;99763.88;;;1.45;100.00
43503;BME280;29098;48.184;16.298;2023-01-26T08:28:09;99770.50;;;1.49;100.00
43503;BME280;29098;48.184;16.298;2023-01-26T08:30:34;99762.56;;;1.40;100.00
43503;BME280;29098;48.184;16.298;2023-01-26T08:33:01;99765.75;;;1.43;100.00
43503;BME280;29098;48.184;16.298;2023-01-26T08:35:26;99768.09;;;1.35;100.00
43503;BME280;29098;48.184;16.298;2023-01-26T08:37:52;99773.91;;;1.39;100.00
43503;BME280;29098;48.184;16.298;2023-01-26T08:40:17;99764.44;;;1.38;100.00
43503;BME280;29098;48.184;16.298;2023-01-26T08:42:42;99772.69;;;1.31;100.00
43503;BME280;29098;48.184;16.298;2023-01-26T08:45:08;99766.66;;;1.31;100.00
43503;BME280;29098;48.184;16.298;2023-01-26T08:47:33;99758.47;;;1.24;100.00
43503;BME280;29098;48.184;16.298;2023-01-26T08:49:59;99752.59;;;1.33;100.00
43503;BME280;29098;48.184;16.298;2023-01-26T08:52:24;99753.94;;;1.39;100.00
43503;BME280;29098;48.184;16.298;2023-01-26T08:54:49;99750.97;;;1.32;100.00
43503;BME280;29098;48.184;16.298;2023-01-26T08:57:15;99749.31;;;1.31;100.00
43503;BME280;29098;48.184;16.298;2023-01-26T08:59:40;99758.97;;;1.29;100.00
43503;BME280;29098;48.184;16.298;2023-01-26T09:02:07;99758.28;;;1.27;100.00
43503;BME280;29098;48.184;16.298;2023-01-26T09:04:32;99753.66;;;1.31;100.00
43503;BME280;29098;48.184;16.298;2023-01-26T09:06:58;99758.59;;;1.22;100.00
43503;BME280;29098;48.184;16.298;2023-01-26T09:09:24;99758.13;;;1.29;100.00
43503;BME280;29098;48.184;16.298;2023-01-26T09:11:49;99754.94;;;1.25;100.00
43503;BME280;29098;48.184;16.298;2023-01-26T09:14:14;99763.56;;;1.26;100.00
43503;BME280;29098;48.184;16.298;2023-01-26T09:16:40;99754.13;;;1.25;100.00
43503;BME280;29098;48.184;16.298;2023-01-26T09:19:05;99754.31;;;1.21;100.00
43503;BME280;29098;48.184;16.298;2023-01-26T09:21:30;99757.06;;;1.20;100.00
43503;BME280;29098;48.184;16.298;2023-01-26T09:23:56;99754.94;;;1.25;100.00
43503;BME280;29098;48.184;16.298;2023-01-26T09:26:21;99763.78;;;1.22;100.00
43503;BME280;29098;48.184;16.298;2023-01-26T09:28:50;99750.16;;;1.32;100.00
43503;BME280;29098;48.184;16.298;2023-01-26T09:31:15;99761.13;;;1.35;100.00
43503;BME280;29098;48.184;16.298;2023-01-26T09:33:41;99761.84;;;1.38;100.00
43503;BME280;29098;48.184;16.298;2023-01-26T09:36:07;99761.75;;;1.39;100.00
43503;BME280;29098;48.184;16.298;2023-01-26T09:38:33;99759.97;;;1.40;100.00
43503;BME280;29098;48.184;16.298;2023-01-26T09:43:37;99749.56;;;1.40;100.00
43503;BME280;29098;48.184;16.298;2023-01-26T09:46:17;99748.88;;;1.38;100.00
43503;BME280;29098;48.184;16.298;2023-01-26T09:51:26;99735.88;;;1.38;100.00
43503;BME280;29098;48.184;16.298;2023-01-26T09:53:54;99740.13;;;1.39;100.00
43503;BME280;29098;48.184;16.298;2023-01-26T09:56:21;99735.19;;;1.47;100.00
43503;BME280;29098;48.184;16.298;2023-01-26T09:58:50;99741.16;;;1.36;100.00
43503;BME280;29098;48.184;16.298;2023-01-26T10:01:25;99744.63;;;1.36;100.00
43503;BME280;29098;48.184;16.298;2023-01-26T10:03:57;99740.22;;;1.37;100.00
43503;BME280;29098;48.184;16.298;2023-01-26T10:06:25;99739.88;;;1.42;100.00
43503;BME280;29098;48.184;16.298;2023-01-26T10:08:53;99738.97;;;1.43;100.00
43503;BME280;29098;48.184;16.298;2023-01-26T10:11:20;99740.84;;;1.41;100.00
43503;BME280;29098;48.184;16.298;2023-01-26T10:13:51;99732.84;;;1.44;100.00
43503;BME280;29098;48.184;16.298;2023-01-26T10:16:19;99731.19;;;1.43;100.00
43503;BME280;29098;48.184;16.298;2023-01-26T10:21:21;99723.38;;;1.43;100.00
43503;BME280;29098;48.184;16.298;2023-01-26T10:23:49;99724.56;;;1.50;100.00
43503;BME280;29098;48.184;16.298;2023-01-26T10:26:17;99724.34;;;1.53;100.00
43503;BME280;29098;48.184;16.298;2023-01-26T10:28:43;99720.66;;;1.44;100.00
43503;BME280;29098;48.184;16.298;2023-01-26T10:31:11;99717.72;;;1.49;100.00
43503;BME280;29098;48.184;16.298;2023-01-26T10:33:38;99715.38;;;1.57;100.00
43503;BME280;29098;48.184;16.298;2023-01-26T10:36:06;99712.06;;;1.55;100.00
43503;BME280;29098;48.184;16.298;2023-01-26T10:41:04;99704.53;;;1.63;100.00
43503;BME280;29098;48.184;16.298;2023-01-26T10:43:30;99710.78;;;1.61;100.00
43503;BME280;29098;48.184;16.298;2023-01-26T10:45:57;99697.31;;;1.56;100.00
43503;BME280;29098;48.184;16.298;2023-01-26T10:48:22;99693.38;;;1.50;100.00
43503;BME280;29098;48.184;16.298;2023-01-26T10:50:48;99696.47;;;1.55;100.00
43503;BME280;29098;48.184;16.298;2023-01-26T10:53:27;99693.06;;;1.55;100.00
43503;BME280;29098;48.184;16.298;2023-01-26T10:56:12;99685.63;;;1.61;100.00
43503;BME280;29098;48.184;16.298;2023-01-26T10:58:54;99680.91;;;1.67;100.00
43503;BME280;29098;48.184;16.298;2023-01-26T11:01:19;99678.06;;;1.70;100.00
43503;BME280;29098;48.184;16.298;2023-01-26T11:06:25;99675.81;;;1.65;100.00
43503;BME280;29098;48.184;16.298;2023-01-26T11:08:51;99675.56;;;1.57;100.00
43503;BME280;29098;48.184;16.298;2023-01-26T11:11:24;99675.47;;;1.58;100.00
43503;BME280;29098;48.184;16.298;2023-01-26T11:16:36;99675.94;;;1.63;100.00
43503;BME280;29098;48.184;16.298;2023-01-26T11:19:05;99669.78;;;1.64;100.00
43503;BME280;29098;48.184;16.298;2023-01-26T11:23:59;99658.22;;;1.69;100.00
43503;BME280;29098;48.184;16.298;2023-01-26T11:39:01;99643.81;;;1.87;100.00
43503;BME280;29098;48.184;16.298;2023-01-26T11:46:51;99630.22;;;1.84;100.00
43503;BME280;29098;48.184;16.298;2023-01-26T11:59:38;99611.31;;;1.82;100.00
43503;BME280;29098;48.184;16.298;2023-01-26T12:04:50;99608.84;;;1.91;100.00
43503;BME280;29098;48.184;16.298;2023-01-26T12:10:15;99596.81;;;1.90;100.00
43503;BME280;29098;48.184;16.298;2023-01-26T12:12:52;99597.59;;;1.91;100.00
43503;BME280;29098;48.184;16.298;2023-01-26T12:15:23;99601.78;;;1.82;100.00
43503;BME280;29098;48.184;16.298;2023-01-26T12:20:37;99595.72;;;1.82;100.00
43503;BME280;29098;48.184;16.298;2023-01-26T12:25:33;99592.78;;;1.86;100.00
43503;BME280;29098;48.184;16.298;2023-01-26T12:30:40;99592.19;;;1.94;100.00
43503;BME280;29098;48.184;16.298;2023-01-26T12:33:09;99584.88;;;1.88;100.00
43503;BME280;29098;48.184;16.298;2023-01-26T12:38:06;99583.31;;;1.97;100.00
43503;BME280;29098;48.184;16.298;2023-01-26T12:40:35;99576.94;;;1.89;100.00
43503;BME280;29098;48.184;16.298;2023-01-26T12:43:19;99571.72;;;2.01;100.00
43503;BME280;29098;48.184;16.298;2023-01-26T12:45:48;99574.44;;;1.99;100.00
43503;BME280;29098;48.184;16.298;2023-01-26T12:48:21;99568.66;;;1.96;100.00
43503;BME280;29098;48.184;16.298;2023-01-26T12:50:50;99570.56;;;1.94;100.00
43503;BME280;29098;48.184;16.298;2023-01-26T12:53:24;99570.22;;;1.87;100.00
43503;BME280;29098;48.184;16.298;2023-01-26T12:55:57;99567.13;;;1.93;100.00
43503;BME280;29098;48.184;16.298;2023-01-26T12:58:45;99569.38;;;1.98;100.00
43503;BME280;29098;48.184;16.298;2023-01-26T13:03:38;99567.59;;;2.10;100.00
43503;BME280;29098;48.184;16.298;2023-01-26T13:11:00;99566.94;;;2.29;100.00
43503;BME280;29098;48.184;16.298;2023-01-26T13:13:29;99561.38;;;2.22;100.00
43503;BME280;29098;48.184;16.298;2023-01-26T13:18:49;99561.16;;;2.25;100.00
43503;BME280;29098;48.184;16.298;2023-01-26T13:23:58;99567.66;;;2.31;100.00
43503;BME280;29098;48.184;16.298;2023-01-26T13:28:55;99564.13;;;2.21;100.00
43503;BME280;29098;48.184;16.298;2023-01-26T13:31:40;99568.59;;;2.18;100.00
43503;BME280;29098;48.184;16.298;2023-01-26T13:34:06;99563.41;;;2.18;100.00
43503;BME280;29098;48.184;16.298;2023-01-26T13:36:33;99555.59;;;2.18;100.00
43503;BME280;29098;48.184;16.298;2023-01-26T13:39:00;99571.22;;;2.18;100.00
43503;BME280;29098;48.184;16.298;2023-01-26T13:41:28;99567.09;;;2.16;100.00
43503;BME280;29098;48.184;16.298;2023-01-26T13:43:54;99576.44;;;2.07;100.00
43503;BME280;29098;48.184;16.298;2023-01-26T13:46:25;99571.56;;;2.14;100.00
43503;BME280;29098;48.184;16.298;2023-01-26T13:48:55;99569.56;;;2.17;100.00
43503;BME280;29098;48.184;16.298;2023-01-26T13:53:56;99575.03;;;2.03;100.00
43503;BME280;29098;48.184;16.298;2023-01-26T13:58:50;99568.28;;;2.12;100.00
43503;BME280;29098;48.184;16.298;2023-01-26T14:01:16;99568.53;;;2.09;100.00
43503;BME280;29098;48.184;16.298;2023-01-26T14:03:42;99570.88;;;2.12;100.00
43503;BME280;29098;48.184;16.298;2023-01-26T14:06:17;99569.13;;;2.12;100.00
43503;BME280;29098;48.184;16.298;2023-01-26T14:08:46;99564.34;;;2.17;100.00
43503;BME280;29098;48.184;16.298;2023-01-26T14:11:15;99573.47;;;2.12;100.00
43503;BME280;29098;48.184;16.298;2023-01-26T14:13:41;99569.81;;;2.03;100.00
43503;BME280;29098;48.184;16.298;2023-01-26T14:16:07;99572.56;;;2.01;100.00
43503;BME280;29098;48.184;16.298;2023-01-26T14:18:32;99570.44;;;1.95;100.00
43503;BME280;29098;48.184;16.298;2023-01-26T14:21:05;99568.66;;;1.96;100.00
43503;BME280;29098;48.184;16.298;2023-01-26T14:23:34;99571.13;;;1.97;100.00